CFG5LN LPMA-GCFV
Flight info
| Callsign | CFG5LN |
|---|---|
| Flight time | N/A |
| Altitude | 35000 |
| Route | GOSGA DCT ORTIS N728 BRICK/N0468F290 DCT GDV |
| Aircraft | A320/M-SDE3FGHIRWY/LB1 |
Departure
| Time | 2026-05-01 15:24 |
|---|---|
| Airport | Cristiano Ronaldo International Airport (LPMA) |
Arrival
| Time | N/A |
|---|---|
| Airport | Fuerteventura Airport (GCFV) |
| Time | Latitude | Longitude | Altitude | Speed | Heading |
|---|---|---|---|---|---|
| 2026-05-01 14:55 | 32.69575 | -16.77343 | 179 ft | 0 kts | 140° |
| 2026-05-01 14:57 | 32.69576 | -16.77343 | 178 ft | 0 kts | 140° |
| 2026-05-01 15:04 | 32.69580 | -16.77347 | 178 ft | 4 kts | 137° |
| 2026-05-01 15:04 | 32.69595 | -16.77372 | 176 ft | 4 kts | 126° |
| 2026-05-01 15:04 | 32.69601 | -16.77382 | 176 ft | 3 kts | 137° |
| 2026-05-01 15:05 | 32.69602 | -16.77382 | 176 ft | 0 kts | 137° |
| 2026-05-01 15:07 | 32.69596 | -16.77376 | 176 ft | 2 kts | 137° |
| 2026-05-01 15:07 | 32.69584 | -16.77359 | 178 ft | 2 kts | 120° |
| 2026-05-01 15:07 | 32.69590 | -16.77331 | 179 ft | 6 kts | 54° |
| 2026-05-01 15:07 | 32.69633 | -16.77340 | 174 ft | 11 kts | 319° |
| 2026-05-01 15:08 | 32.69703 | -16.77354 | 167 ft | 12 kts | 43° |
| 2026-05-01 15:08 | 32.69751 | -16.77288 | 169 ft | 8 kts | 47° |
| 2026-05-01 15:08 | 32.69767 | -16.77267 | 170 ft | 0 kts | 46° |
| 2026-05-01 15:15 | 32.69783 | -16.77248 | 172 ft | 4 kts | 47° |
| 2026-05-01 15:15 | 32.69797 | -16.77230 | 172 ft | 0 kts | 46° |
| 2026-05-01 15:20 | 32.69803 | -16.77223 | 173 ft | 7 kts | 46° |
| 2026-05-01 15:21 | 32.69872 | -16.77175 | 177 ft | 13 kts | 359° |
| 2026-05-01 15:21 | 32.69990 | -16.77180 | 179 ft | 20 kts | 4° |
| 2026-05-01 15:21 | 32.70111 | -16.77068 | 183 ft | 27 kts | 44° |
| 2026-05-01 15:21 | 32.70280 | -16.76876 | 192 ft | 37 kts | 44° |
| 2026-05-01 15:22 | 32.70598 | -16.76507 | 203 ft | 25 kts | 42° |
| 2026-05-01 15:22 | 32.70702 | -16.76447 | 201 ft | 16 kts | 82° |
| 2026-05-01 15:22 | 32.70666 | -16.76421 | 203 ft | 3 kts | 234° |
| 2026-05-01 15:23 | 32.70635 | -16.76458 | 199 ft | 16 kts | 224° |
| 2026-05-01 15:23 | 32.70351 | -16.76791 | 206 ft | 97 kts | 224° |
| 2026-05-01 15:23 | 32.69712 | -16.77541 | 179 ft | 159 kts | 225° |
| 2026-05-01 15:23 | 32.68848 | -16.78556 | 387 ft | 186 kts | 226° |
| 2026-05-01 15:24 | 32.67872 | -16.79574 | 1042 ft | 187 kts | 208° |
| 2026-05-01 15:24 | 32.66628 | -16.79859 | 1608 ft | 191 kts | 171° |
| 2026-05-01 15:24 | 32.65329 | -16.79315 | 2149 ft | 202 kts | 165° |
| 2026-05-01 15:24 | 32.63961 | -16.78870 | 2756 ft | 206 kts | 170° |
| 2026-05-01 15:25 | 32.62544 | -16.78488 | 3401 ft | 210 kts | 170° |
| 2026-05-01 15:25 | 32.61104 | -16.78102 | 4070 ft | 214 kts | 170° |
| 2026-05-01 15:25 | 32.59649 | -16.77669 | 4781 ft | 217 kts | 168° |
| 2026-05-01 15:25 | 32.58201 | -16.77121 | 5468 ft | 220 kts | 164° |
| 2026-05-01 15:26 | 32.56718 | -16.76477 | 5933 ft | 237 kts | 169° |
| 2026-05-01 15:26 | 32.55032 | -16.76024 | 6294 ft | 260 kts | 174° |
| 2026-05-01 15:26 | 32.53220 | -16.75645 | 7038 ft | 265 kts | 174° |
| 2026-05-01 15:26 | 32.51413 | -16.75249 | 8071 ft | 258 kts | 173° |
| 2026-05-01 15:27 | 32.49602 | -16.74812 | 8706 ft | 274 kts | 172° |
| 2026-05-01 15:27 | 32.47700 | -16.74318 | 9348 ft | 284 kts | 172° |
| 2026-05-01 15:27 | 32.45848 | -16.73812 | 10215 ft | 285 kts | 171° |
| 2026-05-01 15:28 | 32.42095 | -16.72686 | 11665 ft | 293 kts | 171° |
| 2026-05-01 15:28 | 32.40036 | -16.72119 | 11895 ft | 316 kts | 172° |
| 2026-05-01 15:28 | 32.37812 | -16.71521 | 12087 ft | 339 kts | 171° |
| 2026-05-01 15:29 | 32.32906 | -16.70175 | 12359 ft | 383 kts | 171° |
| 2026-05-01 15:29 | 32.30247 | -16.69427 | 12496 ft | 402 kts | 170° |
| 2026-05-01 15:29 | 32.24700 | -16.67837 | 13481 ft | 415 kts | 170° |
| 2026-05-01 15:30 | 32.19027 | -16.66193 | 14545 ft | 423 kts | 170° |
| 2026-05-01 15:31 | 32.07429 | -16.63035 | 16542 ft | 430 kts | 177° |
| 2026-05-01 15:31 | 32.01455 | -16.62355 | 17459 ft | 433 kts | 179° |
| 2026-05-01 15:32 | 31.95460 | -16.61697 | 18328 ft | 438 kts | 179° |
| 2026-05-01 15:32 | 31.89360 | -16.61033 | 19051 ft | 443 kts | 179° |
| 2026-05-01 15:33 | 31.80094 | -16.60022 | 20055 ft | 449 kts | 179° |
| 2026-05-01 15:34 | 31.70712 | -16.58982 | 20971 ft | 454 kts | 179° |